Time;durP1;ratioP1;P1;durP2;ratioP2;P2;SDS_P1;SDS_P2;PMS_P1;PMS_P2;Temp;Humidity;BMP_temperature;BMP_pressure;BME280_temperature;BME280_humidity;BME280_pressure;Samples;Min_cycle;Max_cycle;Signal;HPM_P1;HPM_P2
2023/12/22 00:01:30;;;;;;;27.70;5.83;;;6.30;99.90;;;;;;5094014;28;20646;-81
2023/12/22 00:03:56;;;;;;;30.27;5.17;;;6.20;99.90;;;;;;5092615;28;20093;-81
2023/12/22 00:06:22;;;;;;;30.07;5.53;;;6.20;99.90;;;;;;5093999;28;20055;-82
2023/12/22 00:08:48;;;;;;;31.43;5.60;;;6.20;99.90;;;;;;5093739;28;20039;-82
2023/12/22 00:11:13;;;;;;;35.13;5.30;;;6.20;99.90;;;;;;5092881;28;20161;-82
2023/12/22 00:13:39;;;;;;;25.70;4.97;;;6.20;99.90;;;;;;5092908;28;20083;-82
2023/12/22 00:16:05;;;;;;;26.70;4.80;;;6.30;99.90;;;;;;5075601;28;20044;-82
2023/12/22 00:18:31;;;;;;;22.57;4.40;;;6.20;99.90;;;;;;5092795;28;20565;-82
2023/12/22 00:20:57;;;;;;;25.07;4.70;;;6.30;99.90;;;;;;5075572;28;20477;-82
2023/12/22 00:23:22;;;;;;;25.80;4.23;;;6.30;99.90;;;;;;5093272;28;20281;-82
2023/12/22 00:25:48;;;;;;;19.53;4.60;;;6.30;99.90;;;;;;5094242;28;20162;-83
2023/12/22 00:28:14;;;;;;;20.50;4.83;;;6.30;99.90;;;;;;5076470;28;20490;-83
2023/12/22 00:30:39;;;;;;;21.13;4.10;;;6.20;99.90;;;;;;5093387;28;20040;-83
2023/12/22 00:33:05;;;;;;;29.00;5.77;;;6.20;99.90;;;;;;5076744;28;20048;-83
2023/12/22 00:35:31;;;;;;;31.90;5.03;;;6.20;99.90;;;;;;5109396;28;20125;-83
2023/12/22 00:37:57;;;;;;;32.80;5.13;;;6.30;99.90;;;;;;5093622;28;20044;-83
2023/12/22 00:40:22;;;;;;;32.60;6.03;;;6.30;99.90;;;;;;5076645;28;20426;-83
2023/12/22 00:42:48;;;;;;;30.23;5.10;;;6.40;99.90;;;;;;5092694;28;20055;-82
2023/12/22 00:45:14;;;;;;;31.87;5.30;;;6.50;99.90;;;;;;5092604;28;20044;-81
2023/12/22 00:47:40;;;;;;;35.10;6.23;;;6.50;99.90;;;;;;5092386;28;20051;-81
2023/12/22 00:50:06;;;;;;;30.30;6.03;;;6.40;99.90;;;;;;5092269;28;20048;-81
2023/12/22 00:52:32;;;;;;;25.30;4.93;;;6.40;99.90;;;;;;5093774;28;20117;-81
2023/12/22 00:54:58;;;;;;;22.97;5.07;;;6.40;99.90;;;;;;5093413;28;20774;-81
2023/12/22 00:57:23;;;;;;;30.97;5.50;;;6.40;99.90;;;;;;5093072;28;20040;-81
2023/12/22 00:59:49;;;;;;;23.90;5.20;;;6.30;99.90;;;;;;5092924;28;20083;-81
2023/12/22 01:02:15;;;;;;;29.07;5.63;;;6.30;99.90;;;;;;5093379;28;20098;-82
2023/12/22 01:04:41;;;;;;;28.03;5.23;;;6.30;99.90;;;;;;5075128;28;20138;-81
2023/12/22 01:07:11;;;;;;;22.27;3.77;;;6.30;99.90;;;;;;5092402;28;20389;-81
2023/12/22 01:09:37;;;;;;;22.90;3.73;;;6.40;99.90;;;;;;5093488;28;20044;-81
2023/12/22 01:12:07;;;;;;;23.70;3.93;;;6.40;99.90;;;;;;5091928;28;20758;-81
2023/12/22 01:14:33;;;;;;;26.55;4.10;;;6.30;99.90;;;;;;5093772;28;20642;-81
2023/12/22 01:17:00;;;;;;;23.60;4.37;;;6.30;99.90;;;;;;5093193;28;20374;-82
2023/12/22 01:19:26;;;;;;;18.75;3.25;;;6.20;99.90;;;;;;5093873;28;20278;-81
2023/12/22 01:21:51;;;;;;;23.17;3.67;;;6.10;99.90;;;;;;5092106;28;20096;-81
2023/12/22 01:24:17;;;;;;;23.60;4.60;;;6.10;99.90;;;;;;5093085;28;20052;-81
2023/12/22 01:26:43;;;;;;;27.93;5.93;;;6.10;99.90;;;;;;5092159;28;20040;-81
2023/12/22 01:29:08;;;;;;;26.53;3.97;;;6.10;99.90;;;;;;5094751;28;20127;-81
2023/12/22 01:31:34;;;;;;;24.10;5.70;;;6.10;99.90;;;;;;5096899;28;20094;-81
2023/12/22 01:34:00;;;;;;;26.60;4.67;;;6.10;99.90;;;;;;5062305;28;20500;-81
2023/12/22 01:36:26;;;;;;;20.90;4.13;;;6.10;99.90;;;;;;5096860;28;20052;-81
2023/12/22 01:38:52;;;;;;;28.23;4.63;;;6.20;99.90;;;;;;5095686;28;20052;-81
2023/12/22 01:41:17;;;;;;;24.57;4.93;;;6.10;99.90;;;;;;5078913;28;20131;-81
2023/12/22 01:43:43;;;;;;;20.47;4.80;;;6.10;99.90;;;;;;5095507;28;20130;-81
2023/12/22 01:46:10;;;;;;;29.40;4.90;;;6.10;99.90;;;;;;5095380;28;20123;-81
2023/12/22 01:48:36;;;;;;;23.20;4.23;;;6.10;99.90;;;;;;5096451;28;20056;-81
2023/12/22 01:51:04;;;;;;;21.75;4.80;;;6.10;99.90;;;;;;5096888;28;20281;-81
2023/12/22 01:53:30;;;;;;;31.07;5.50;;;6.10;99.90;;;;;;5096790;28;20404;-81
2023/12/22 01:55:57;;;;;;;34.40;6.13;;;6.10;99.90;;;;;;5094933;28;20392;-81
2023/12/22 01:58:23;;;;;;;33.33;5.60;;;6.10;99.90;;;;;;5095214;28;20286;-81
2023/12/22 02:00:49;;;;;;;34.70;6.07;;;6.10;99.90;;;;;;5095669;28;20438;-81
2023/12/22 02:03:16;;;;;;;38.33;6.30;;;6.10;99.90;;;;;;5096368;28;20278;-81
2023/12/22 02:05:44;;;;;;;35.42;6.78;;;6.20;99.90;;;;;;5096948;28;20128;-81
2023/12/22 02:08:11;;;;;;;23.02;4.70;;;6.30;99.90;;;;;;5094954;28;20044;-81
2023/12/22 02:10:37;;;;;;;23.25;4.85;;;6.30;99.90;;;;;;5096192;28;20052;-81
2023/12/22 02:13:08;;;;;;;14.87;3.30;;;6.30;99.90;;;;;;5094967;28;20052;-81
2023/12/22 02:15:34;;;;;;;12.48;2.85;;;6.40;99.90;;;;;;5095676;28;20463;-81
2023/12/22 02:18:21;;;;;;;15.27;2.53;;;6.50;99.90;;;;;;5077637;28;20134;-81
2023/12/22 02:20:49;;;;;;;14.40;3.08;;;6.40;99.90;;;;;;5094600;28;20056;-81
2023/12/22 02:23:14;;;;;;;19.10;3.58;;;6.40;99.90;;;;;;5077756;28;20048;-81
2023/12/22 02:25:40;;;;;;;20.13;3.17;;;6.40;99.90;;;;;;5094759;28;20477;-82
2023/12/22 02:28:10;;;;;;;20.93;3.07;;;6.40;99.90;;;;;;5077357;28;20044;-82
2023/12/22 02:30:47;;;;;;;16.67;3.40;;;6.40;99.90;;;;;;5095218;28;20152;-81
2023/12/22 02:33:16;;;;;;;21.53;3.87;;;6.40;99.90;;;;;;5078822;28;20052;-82
2023/12/22 02:35:44;;;;;;;26.17;4.05;;;6.40;99.90;;;;;;5095268;28;20788;-81
2023/12/22 02:38:11;;;;;;;22.03;4.33;;;6.40;99.90;;;;;;5094441;28;20043;-80
2023/12/22 02:40:38;;;;;;;22.48;4.22;;;6.40;99.90;;;;;;5094528;28;20278;-81
2023/12/22 02:43:05;;;;;;;17.38;4.15;;;6.40;99.90;;;;;;5096130;28;20372;-81
2023/12/22 02:45:32;;;;;;;12.27;2.55;;;6.30;99.90;;;;;;5077942;28;20369;-81
2023/12/22 02:47:58;;;;;;;13.17;2.27;;;6.30;99.90;;;;;;5094743;28;20048;-81
2023/12/22 02:50:23;;;;;;;16.30;2.53;;;6.30;99.90;;;;;;5094124;28;20290;-81
2023/12/22 02:52:49;;;;;;;9.77;2.10;;;6.30;99.90;;;;;;5095279;28;20274;-81
2023/12/22 02:55:15;;;;;;;17.00;3.20;;;6.30;99.90;;;;;;5060544;28;20047;-81
2023/12/22 02:57:41;;;;;;;11.37;2.30;;;6.20;99.90;;;;;;5095254;28;20048;-81
2023/12/22 03:00:07;;;;;;;13.77;3.40;;;6.20;99.90;;;;;;5077420;28;20286;-81
2023/12/22 03:02:33;;;;;;;12.70;2.60;;;6.10;99.90;;;;;;5094163;28;20052;-81
2023/12/22 03:04:59;;;;;;;17.30;2.97;;;6.10;99.90;;;;;;5095448;28;20335;-81
2023/12/22 03:07:24;;;;;;;18.97;2.70;;;6.10;99.90;;;;;;5093918;28;20126;-81
2023/12/22 03:09:50;;;;;;;17.97;3.13;;;6.00;99.90;;;;;;5094030;28;20549;-81
2023/12/22 03:12:16;;;;;;;20.67;3.33;;;6.00;99.90;;;;;;5093780;28;20112;-81
2023/12/22 03:14:41;;;;;;;17.93;3.10;;;5.90;99.90;;;;;;5094793;28;20070;-81
2023/12/22 03:17:07;;;;;;;21.77;3.73;;;5.90;99.90;;;;;;5094232;28;20055;-81
2023/12/22 03:19:34;;;;;;;25.77;5.30;;;6.00;99.90;;;;;;5077798;28;20421;-80
2023/12/22 03:21:59;;;;;;;22.40;4.65;;;6.00;99.90;;;;;;5094782;28;20684;-80
2023/12/22 03:24:28;;;;;;;21.13;3.70;;;6.00;99.90;;;;;;5093857;28;20044;-80
2023/12/22 03:26:54;;;;;;;30.95;5.20;;;6.00;99.90;;;;;;5076808;28;20483;-80
2023/12/22 03:29:20;;;;;;;23.35;4.13;;;6.00;99.90;;;;;;5094355;28;20102;-80
2023/12/22 03:31:46;;;;;;;20.40;4.63;;;6.10;99.90;;;;;;5093509;28;20048;-80
2023/12/22 03:34:12;;;;;;;32.45;4.32;;;6.10;99.90;;;;;;5093078;28;20498;-80
2023/12/22 03:36:39;;;;;;;27.27;5.72;;;6.10;99.90;;;;;;5076780;28;20044;-80
2023/12/22 03:39:05;;;;;;;23.35;4.20;;;6.10;99.90;;;;;;5093567;28;20044;-80
2023/12/22 03:41:31;;;;;;;25.58;5.28;;;6.20;99.90;;;;;;5076868;28;20101;-80
2023/12/22 03:43:57;;;;;;;21.23;4.28;;;6.20;99.90;;;;;;5093421;28;20044;-80
2023/12/22 03:46:23;;;;;;;24.55;4.40;;;6.20;99.90;;;;;;5094388;28;20048;-79
2023/12/22 03:48:52;;;;;;;28.37;5.37;;;6.20;99.90;;;;;;5076812;28;20051;-80
2023/12/22 03:51:18;;;;;;;21.85;4.18;;;6.20;99.90;;;;;;5094018;28;20093;-80
2023/12/22 03:53:43;;;;;;;20.30;4.27;;;6.20;99.90;;;;;;5076316;28;20136;-80
2023/12/22 03:56:09;;;;;;;24.30;3.70;;;6.20;99.90;;;;;;5093232;28;20040;-80
2023/12/22 03:58:36;;;;;;;19.00;4.47;;;6.30;99.90;;;;;;5093805;28;20571;-80
2023/12/22 04:01:02;;;;;;;22.42;4.07;;;6.30;99.90;;;;;;5094668;28;20113;-81
2023/12/22 04:03:28;;;;;;;25.13;4.20;;;6.40;99.90;;;;;;5092944;28;20052;-80
2023/12/22 04:05:53;;;;;;;25.10;5.10;;;6.40;99.90;;;;;;5094035;28;20278;-80
2023/12/22 04:08:20;;;;;;;29.93;4.90;;;6.50;99.90;;;;;;5076179;28;20123;-80
2023/12/22 04:10:46;;;;;;;27.60;3.83;;;6.50;99.90;;;;;;5092790;28;20048;-80
2023/12/22 04:13:12;;;;;;;33.13;6.63;;;6.50;99.90;;;;;;5093198;28;20097;-80
2023/12/22 04:15:38;;;;;;;31.33;5.57;;;6.50;99.90;;;;;;5094151;28;20310;-80
2023/12/22 04:18:04;;;;;;;22.73;4.40;;;6.50;99.90;;;;;;5093846;28;20078;-81
2023/12/22 04:20:30;;;;;;;25.80;5.27;;;6.50;99.90;;;;;;5093891;28;20044;-81
2023/12/22 04:22:55;;;;;;;27.07;4.47;;;6.50;99.90;;;;;;5092842;28;20071;-81
2023/12/22 04:25:22;;;;;;;28.50;4.90;;;6.50;99.90;;;;;;5093494;28;20102;-82
2023/12/22 04:27:49;;;;;;;24.30;4.70;;;6.50;99.90;;;;;;5093752;28;20118;-81
2023/12/22 04:30:15;;;;;;;27.43;4.60;;;6.60;99.90;;;;;;5093623;28;20305;-82
2023/12/22 04:32:41;;;;;;;22.30;4.32;;;6.50;99.90;;;;;;5092840;28;20638;-81
2023/12/22 04:35:07;;;;;;;24.90;4.60;;;6.50;99.90;;;;;;5093063;28;20040;-82
2023/12/22 04:37:33;;;;;;;30.00;5.60;;;6.50;99.90;;;;;;5092461;28;20044;-82
2023/12/22 04:39:58;;;;;;;28.63;4.33;;;6.60;99.90;;;;;;5075798;28;20290;-82
2023/12/22 04:42:25;;;;;;;23.97;5.37;;;6.60;99.90;;;;;;5093510;28;20044;-82
2023/12/22 04:44:51;;;;;;;27.08;4.75;;;6.60;99.90;;;;;;5092645;28;20536;-82
2023/12/22 04:47:17;;;;;;;29.83;5.60;;;6.60;99.90;;;;;;5076217;28;20044;-82
2023/12/22 04:49:43;;;;;;;21.90;4.90;;;6.60;99.90;;;;;;5093521;28;20604;-82
2023/12/22 04:52:09;;;;;;;34.10;5.07;;;6.60;99.90;;;;;;5093554;28;20079;-81
2023/12/22 04:54:35;;;;;;;21.90;4.67;;;6.50;99.90;;;;;;5092482;28;20308;-82
2023/12/22 04:57:01;;;;;;;26.90;5.10;;;6.50;99.90;;;;;;5093399;28;20282;-82
2023/12/22 04:59:27;;;;;;;27.23;5.20;;;6.50;99.90;;;;;;5092502;28;20051;-82
2023/12/22 05:01:52;;;;;;;27.07;5.43;;;6.50;99.90;;;;;;5092322;28;20484;-82
2023/12/22 05:04:18;;;;;;;27.93;4.30;;;6.50;99.90;;;;;;5094626;28;20083;-82
2023/12/22 05:06:45;;;;;;;24.57;4.07;;;6.60;99.90;;;;;;5079360;28;20048;-82
2023/12/22 05:09:12;;;;;;;24.67;4.03;;;6.60;99.90;;;;;;5079197;28;20113;-82
2023/12/22 05:11:37;;;;;;;26.13;4.80;;;6.60;99.90;;;;;;5079707;28;20325;-82
2023/12/22 05:14:03;;;;;;;27.47;4.90;;;6.60;99.90;;;;;;5080139;28;20332;-82
2023/12/22 05:16:31;;;;;;;25.53;5.97;;;6.60;99.90;;;;;;5062843;28;20048;-82
2023/12/22 05:18:57;;;;;;;27.43;5.20;;;6.60;99.90;;;;;;5079808;28;20063;-82
2023/12/22 05:21:24;;;;;;;20.63;4.00;;;6.60;99.90;;;;;;5095643;28;20293;-82
2023/12/22 05:23:50;;;;;;;21.80;3.90;;;6.60;99.90;;;;;;5095958;28;20338;-82
2023/12/22 05:26:20;;;;;;;22.93;5.20;;;6.60;99.90;;;;;;5079498;28;20083;-82
2023/12/22 05:28:45;;;;;;;20.25;4.40;;;6.60;99.90;;;;;;5095730;28;20290;-82
2023/12/22 05:31:11;;;;;;;35.33;5.17;;;6.60;99.90;;;;;;5062372;28;20047;-82
2023/12/22 05:33:37;;;;;;;24.00;4.60;;;6.60;99.90;;;;;;5062433;28;20047;-81
2023/12/22 05:36:03;;;;;;;22.10;4.30;;;6.60;99.90;;;;;;5079450;28;20100;-82
2023/12/22 05:38:29;;;;;;;33.83;4.95;;;6.60;99.90;;;;;;5078859;28;20047;-81
2023/12/22 05:40:55;;;;;;;27.47;5.13;;;6.60;99.90;;;;;;5095517;28;20044;-82
2023/12/22 05:43:20;;;;;;;24.50;5.20;;;6.60;99.90;;;;;;5096704;28;20569;-82
2023/12/22 05:45:46;;;;;;;26.50;3.97;;;6.60;99.90;;;;;;5096034;28;20044;-81
2023/12/22 05:48:12;;;;;;;21.17;5.00;;;6.60;99.90;;;;;;5096616;28;20048;-82
2023/12/22 05:50:37;;;;;;;21.63;4.33;;;6.60;99.90;;;;;;5096784;28;20143;-82
2023/12/22 05:53:03;;;;;;;27.03;4.50;;;6.60;99.90;;;;;;5095815;28;20052;-81
2023/12/22 05:55:29;;;;;;;20.43;3.60;;;6.70;99.90;;;;;;5078478;28;20060;-83
2023/12/22 05:57:55;;;;;;;19.20;3.87;;;6.60;99.90;;;;;;5078533;28;20105;-80
2023/12/22 06:00:21;;;;;;;18.52;4.15;;;6.70;99.90;;;;;;5095403;28;20127;-81
2023/12/22 06:02:47;;;;;;;19.60;3.63;;;6.70;99.90;;;;;;5095165;28;20048;-81
2023/12/22 06:05:13;;;;;;;18.13;3.47;;;6.70;99.90;;;;;;5094954;28;20051;-83
2023/12/22 06:07:40;;;;;;;24.63;3.77;;;6.70;99.90;;;;;;5095880;28;20135;-81
2023/12/22 06:10:07;;;;;;;18.70;3.90;;;6.70;99.90;;;;;;5096166;28;20491;-75
2023/12/22 06:12:32;;;;;;;24.90;3.97;;;6.70;99.90;;;;;;5096106;28;20052;-78
2023/12/22 06:14:58;;;;;;;22.40;4.40;;;6.70;99.90;;;;;;5095845;28;20040;-78
2023/12/22 06:17:24;;;;;;;24.63;4.27;;;6.70;99.90;;;;;;5095028;28;20480;-77
2023/12/22 06:19:49;;;;;;;19.63;3.67;;;6.70;99.90;;;;;;5096049;28;20040;-78
2023/12/22 06:22:15;;;;;;;23.20;4.47;;;6.70;99.90;;;;;;5094961;28;20059;-82
2023/12/22 06:24:41;;;;;;;23.40;3.97;;;6.70;99.90;;;;;;5094763;28;20131;-84
2023/12/22 06:27:06;;;;;;;26.17;4.07;;;6.70;99.90;;;;;;5094594;28;20036;-75
2023/12/22 06:29:33;;;;;;;29.73;4.83;;;6.70;99.90;;;;;;5095113;28;20134;-76
2023/12/22 06:31:59;;;;;;;28.42;4.47;;;6.60;99.90;;;;;;5095378;28;20052;-85
2023/12/22 06:34:25;;;;;;;25.73;4.80;;;6.60;99.90;;;;;;5094845;28;20040;-78
2023/12/22 06:36:51;;;;;;;20.30;3.83;;;6.60;99.90;;;;;;5094817;28;20442;-78
2023/12/22 06:39:17;;;;;;;22.13;3.47;;;6.70;99.90;;;;;;5095476;28;20305;-78
2023/12/22 06:41:42;;;;;;;23.27;4.33;;;6.70;99.90;;;;;;5094192;28;20758;-79
2023/12/22 06:44:10;;;;;;;25.57;4.87;;;6.70;99.90;;;;;;5095144;28;20044;-78
2023/12/22 06:46:36;;;;;;;30.08;5.05;;;6.70;99.90;;;;;;5078009;28;20070;-78
2023/12/22 06:49:02;;;;;;;20.20;4.40;;;6.70;99.90;;;;;;5094181;28;20535;-79
2023/12/22 06:51:34;;;;;;;21.27;3.60;;;6.70;99.90;;;;;;5095381;28;20079;-78
2023/12/22 06:54:00;;;;;;;27.20;3.53;;;6.70;99.90;;;;;;5077668;28;20052;-79
2023/12/22 06:56:28;;;;;;;23.43;3.33;;;6.70;99.90;;;;;;5095263;28;20317;-78
2023/12/22 06:58:57;;;;;;;16.80;4.03;;;6.70;99.90;;;;;;5094190;28;20286;-78
2023/12/22 07:01:31;;;;;;;22.67;3.93;;;6.60;99.90;;;;;;5094753;28;20311;-78
2023/12/22 07:03:59;;;;;;;22.45;3.60;;;6.70;99.90;;;;;;5095024;28;20343;-78
2023/12/22 07:06:27;;;;;;;20.97;3.60;;;6.70;99.90;;;;;;5095668;28;20069;-78
2023/12/22 07:09:11;;;;;;;20.77;4.60;;;6.60;99.90;;;;;;5094234;28;20286;-78
2023/12/22 07:11:42;;;;;;;17.47;3.67;;;6.60;99.90;;;;;;5077102;28;20787;-78
2023/12/22 07:14:08;;;;;;;22.27;3.50;;;6.60;99.90;;;;;;5093987;28;20293;-78
2023/12/22 07:16:37;;;;;;;26.37;4.90;;;6.60;99.90;;;;;;5094906;28;20633;-78
2023/12/22 07:19:04;;;;;;;16.40;3.33;;;6.60;99.90;;;;;;5094834;28;20112;-78
2023/12/22 07:21:29;;;;;;;26.30;4.27;;;6.60;99.90;;;;;;5095597;28;20279;-78
2023/12/22 07:23:55;;;;;;;23.97;4.10;;;6.60;99.90;;;;;;5093797;28;20634;-79
2023/12/22 07:26:21;;;;;;;20.73;4.33;;;6.60;99.90;;;;;;5093014;28;20399;-78
2023/12/22 07:28:47;;;;;;;27.37;4.37;;;6.60;99.90;;;;;;5093520;28;20055;-78
2023/12/22 07:31:14;;;;;;;21.20;3.90;;;6.60;99.90;;;;;;5094166;28;20616;-78
2023/12/22 07:33:43;;;;;;;23.80;4.60;;;6.60;99.90;;;;;;5095156;28;20615;-78
2023/12/22 07:36:08;;;;;;;24.07;3.67;;;6.60;99.90;;;;;;5093502;28;20503;-78
2023/12/22 07:38:34;;;;;;;27.50;5.03;;;6.60;99.90;;;;;;5093315;28;20274;-78
2023/12/22 07:41:00;;;;;;;28.83;5.03;;;6.60;99.90;;;;;;5094426;28;20048;-78
2023/12/22 07:43:26;;;;;;;29.33;5.07;;;6.60;99.90;;;;;;5093145;28;20040;-78
2023/12/22 07:45:51;;;;;;;27.47;5.03;;;6.50;99.90;;;;;;5094464;28;20047;-78
2023/12/22 07:48:18;;;;;;;18.77;4.40;;;6.60;99.90;;;;;;5094345;28;20036;-78
2023/12/22 07:50:45;;;;;;;23.20;5.03;;;6.60;99.90;;;;;;5093022;28;20079;-78
2023/12/22 07:53:10;;;;;;;23.77;3.72;;;6.60;99.90;;;;;;5094295;28;20289;-78
2023/12/22 07:55:38;;;;;;;19.47;4.07;;;6.70;99.90;;;;;;5094220;28;20044;-78
2023/12/22 07:58:04;;;;;;;23.20;4.18;;;6.70;99.90;;;;;;5094732;28;20043;-78
2023/12/22 08:00:30;;;;;;;20.60;3.47;;;6.70;99.90;;;;;;5076150;28;20048;-78
2023/12/22 08:02:55;;;;;;;22.47;3.80;;;6.80;99.90;;;;;;5077127;28;20293;-78
2023/12/22 08:05:21;;;;;;;20.43;3.40;;;6.80;99.90;;;;;;5075785;28;20055;-78
2023/12/22 08:07:47;;;;;;;13.93;2.67;;;6.80;99.90;;;;;;5093055;28;20136;-78
2023/12/22 08:10:12;;;;;;;16.97;3.63;;;6.80;99.90;;;;;;5093013;28;20476;-78
2023/12/22 08:12:38;;;;;;;13.40;2.17;;;6.80;99.90;;;;;;5094462;28;20048;-78
2023/12/22 08:15:05;;;;;;;10.40;2.20;;;6.80;99.90;;;;;;5093085;28;20093;-78
2023/12/22 08:17:31;;;;;;;12.10;2.50;;;6.90;99.90;;;;;;5093855;28;20500;-78
2023/12/22 08:19:57;;;;;;;13.57;1.88;;;6.90;99.90;;;;;;5093855;28;20274;-78
2023/12/22 08:22:23;;;;;;;10.47;1.57;;;6.80;99.90;;;;;;5094360;28;20530;-78
2023/12/22 08:24:49;;;;;;;12.23;2.03;;;6.80;99.90;;;;;;5093924;28;20130;-78
2023/12/22 08:27:15;;;;;;;7.70;1.27;;;6.80;99.90;;;;;;5093440;28;20706;-77
2023/12/22 08:29:40;;;;;;;7.73;1.33;;;6.80;99.90;;;;;;5093810;28;20314;-77
2023/12/22 08:32:06;;;;;;;6.37;1.40;;;6.80;99.90;;;;;;5092781;28;20040;-77
2023/12/22 08:34:32;;;;;;;6.13;1.30;;;6.70;99.90;;;;;;5092598;28;20055;-77
2023/12/22 08:36:58;;;;;;;8.70;1.63;;;6.70;99.90;;;;;;5093669;28;20044;-77
2023/12/22 08:39:26;;;;;;;10.07;1.73;;;6.70;99.90;;;;;;5096256;28;20472;-77
2023/12/22 08:41:53;;;;;;;7.70;1.60;;;6.70;99.90;;;;;;5096645;28;20100;-77
2023/12/22 08:44:19;;;;;;;10.90;1.53;;;6.60;99.90;;;;;;5096854;28;20282;-77
2023/12/22 08:46:45;;;;;;;9.27;1.33;;;6.60;99.90;;;;;;5097235;28;20317;-77
2023/12/22 08:49:11;;;;;;;11.87;2.50;;;6.60;99.90;;;;;;5098373;28;20436;-80
2023/12/22 08:51:36;;;;;;;13.27;1.60;;;6.60;99.90;;;;;;5080720;28;20040;-77
2023/12/22 08:54:04;;;;;;;8.40;1.33;;;6.60;99.90;;;;;;5096455;28;20285;-77
2023/12/22 08:56:30;;;;;;;12.37;2.37;;;6.60;99.90;;;;;;5097696;28;20066;-77
2023/12/22 08:58:58;;;;;;;10.50;2.10;;;6.60;99.90;;;;;;5096316;28;20294;-77
2023/12/22 09:01:24;;;;;;;13.00;2.20;;;6.60;99.90;;;;;;5098375;28;20052;-78
2023/12/22 09:03:50;;;;;;;9.97;1.93;;;6.60;99.90;;;;;;5096327;28;20289;-78
2023/12/22 09:06:18;;;;;;;12.80;3.27;;;6.60;99.90;;;;;;5097510;28;20734;-78
2023/12/22 09:08:44;;;;;;;14.83;2.20;;;6.60;99.90;;;;;;5079817;28;20333;-78
2023/12/22 09:11:17;;;;;;;15.53;2.67;;;6.60;99.90;;;;;;5096233;28;20278;-77
2023/12/22 09:13:43;;;;;;;15.43;2.47;;;6.60;99.90;;;;;;5097626;28;20309;-78
2023/12/22 09:16:10;;;;;;;11.97;2.70;;;6.60;99.90;;;;;;5079090;28;20050;-78
2023/12/22 09:18:36;;;;;;;13.03;2.30;;;6.60;99.90;;;;;;5097153;28;20332;-78
2023/12/22 09:21:03;;;;;;;11.50;1.93;;;6.60;99.90;;;;;;5097162;28;20282;-78
2023/12/22 09:23:29;;;;;;;17.33;2.73;;;6.60;99.90;;;;;;5095857;28;20086;-78
2023/12/22 09:25:55;;;;;;;15.02;2.70;;;6.70;99.90;;;;;;5097040;28;20274;-78
2023/12/22 09:28:21;;;;;;;14.40;2.70;;;6.70;99.90;;;;;;5097038;28;20403;-78
2023/12/22 09:30:47;;;;;;;16.13;2.60;;;6.70;99.90;;;;;;5096945;28;20040;-78
2023/12/22 09:33:13;;;;;;;11.67;2.37;;;6.70;99.90;;;;;;5097796;28;20055;-78
2023/12/22 09:35:41;;;;;;;17.70;2.70;;;6.70;99.90;;;;;;5095729;28;20498;-78
2023/12/22 09:38:12;;;;;;;19.70;3.07;;;6.80;99.90;;;;;;5095694;28;20048;-78
2023/12/22 09:40:38;;;;;;;16.47;2.60;;;6.80;99.90;;;;;;5096115;28;20293;-78
2023/12/22 09:43:06;;;;;;;18.20;3.33;;;6.80;99.90;;;;;;5096125;28;20278;-78
2023/12/22 09:45:33;;;;;;;11.40;2.57;;;6.80;99.90;;;;;;5097492;28;20637;-78
2023/12/22 09:48:00;;;;;;;16.53;2.80;;;6.80;99.90;;;;;;5096969;28;20365;-78
2023/12/22 09:50:28;;;;;;;15.50;2.80;;;6.90;99.90;;;;;;5096117;28;20369;-78
2023/12/22 09:52:54;;;;;;;19.27;2.90;;;6.90;99.90;;;;;;5096550;28;20278;-78
2023/12/22 09:55:22;;;;;;;13.90;2.70;;;6.90;99.90;;;;;;5095356;28;20307;-79
2023/12/22 09:57:52;;;;;;;18.57;3.07;;;6.90;99.90;;;;;;5096474;28;20632;-78
2023/12/22 10:00:18;;;;;;;16.13;3.10;;;6.90;99.90;;;;;;5096432;28;20307;-78
2023/12/22 10:02:45;;;;;;;19.40;3.70;;;7.00;99.90;;;;;;5095684;28;20317;-79
2023/12/22 10:05:14;;;;;;;20.37;4.27;;;7.00;99.90;;;;;;5096136;28;20286;-78
2023/12/22 10:07:44;;;;;;;19.53;3.20;;;7.00;99.90;;;;;;5096880;28;20309;-78
2023/12/22 10:10:11;;;;;;;17.10;4.07;;;7.10;99.90;;;;;;5096228;28;20278;-79
2023/12/22 10:12:39;;;;;;;17.67;3.83;;;7.10;99.90;;;;;;5079185;28;20321;-78
2023/12/22 10:15:07;;;;;;;15.60;3.73;;;7.10;99.90;;;;;;5095054;28;20353;-79
2023/12/22 10:17:33;;;;;;;19.43;3.50;;;7.20;99.90;;;;;;5095775;28;20774;-79
2023/12/22 10:19:59;;;;;;;18.03;3.30;;;7.20;99.90;;;;;;5094869;28;20290;-79
2023/12/22 10:22:25;;;;;;;26.27;3.73;;;7.20;99.90;;;;;;5094755;28;20282;-79
2023/12/22 10:24:51;;;;;;;19.67;3.63;;;7.30;99.90;;;;;;5095966;28;20403;-79
2023/12/22 10:27:24;;;;;;;16.37;3.53;;;7.30;99.90;;;;;;5094961;28;20488;-79
2023/12/22 10:29:53;;;;;;;15.33;2.87;;;7.30;99.90;;;;;;5095069;28;20070;-79
2023/12/22 10:32:19;;;;;;;18.53;4.33;;;7.30;99.90;;;;;;5095922;28;20278;-79
2023/12/22 10:34:45;;;;;;;14.83;2.47;;;7.30;99.90;;;;;;5095685;28;20497;-79
2023/12/22 10:37:12;;;;;;;18.07;3.10;;;7.30;99.90;;;;;;5077646;28;20322;-79
2023/12/22 10:39:38;;;;;;;24.87;5.07;;;7.30;99.90;;;;;;5094664;28;20051;-79
2023/12/22 10:42:05;;;;;;;21.23;4.80;;;7.30;99.90;;;;;;5095686;28;20286;-79
2023/12/22 10:44:31;;;;;;;19.30;3.13;;;7.30;99.90;;;;;;5094885;28;20325;-78
2023/12/22 10:46:57;;;;;;;25.23;3.07;;;7.30;99.90;;;;;;5095557;28;20624;-79
2023/12/22 10:49:24;;;;;;;17.83;3.43;;;7.30;99.90;;;;;;5096017;28;20039;-79
2023/12/22 10:51:51;;;;;;;26.07;3.60;;;7.40;99.90;;;;;;5095291;28;20337;-79
2023/12/22 10:54:17;;;;;;;19.23;3.30;;;7.40;99.90;;;;;;5094180;28;20689;-79
2023/12/22 10:56:43;;;;;;;14.70;3.30;;;7.40;99.90;;;;;;5094212;28;20335;-79
2023/12/22 10:59:09;;;;;;;15.83;3.13;;;7.40;99.90;;;;;;5061607;28;20722;-79
2023/12/22 11:01:38;;;;;;;17.07;2.47;;;7.40;99.90;;;;;;5093403;28;20097;-79
2023/12/22 11:04:12;;;;;;;15.87;2.90;;;7.50;99.90;;;;;;5094727;28;20298;-79
2023/12/22 11:06:39;;;;;;;15.83;3.23;;;7.50;99.90;;;;;;5095183;28;20340;-79
2023/12/22 11:09:09;;;;;;;15.97;2.83;;;7.50;99.90;;;;;;5094180;28;20359;-79
2023/12/22 11:11:37;;;;;;;16.93;3.00;;;7.50;99.90;;;;;;5094134;28;20675;-79
2023/12/22 11:14:06;;;;;;;18.07;2.50;;;7.50;99.90;;;;;;5093889;28;20274;-79
2023/12/22 11:16:36;;;;;;;17.10;3.43;;;7.60;99.90;;;;;;5093844;28;20290;-79
2023/12/22 11:19:03;;;;;;;19.07;2.97;;;7.60;99.90;;;;;;5093923;28;20287;-79
2023/12/22 11:21:30;;;;;;;14.73;2.87;;;7.60;99.90;;;;;;5094844;28;20373;-80
2023/12/22 11:23:59;;;;;;;16.23;3.10;;;7.60;99.90;;;;;;5093717;28;20270;-79
2023/12/22 11:26:25;;;;;;;13.77;2.63;;;7.60;99.90;;;;;;5093821;28;20370;-79
2023/12/22 11:28:52;;;;;;;21.33;2.97;;;7.70;99.90;;;;;;5093564;28;20457;-79
2023/12/22 11:31:23;;;;;;;17.73;2.97;;;7.60;99.90;;;;;;5094717;28;20279;-79
2023/12/22 11:33:50;;;;;;;15.63;2.90;;;7.70;99.90;;;;;;5094946;28;20289;-79
2023/12/22 11:36:17;;;;;;;19.60;3.50;;;7.70;99.90;;;;;;5094490;28;20301;-79
2023/12/22 11:38:47;;;;;;;14.37;2.70;;;7.70;99.90;;;;;;5094950;28;20286;-79
2023/12/22 11:41:29;;;;;;;20.17;3.50;;;7.70;99.90;;;;;;5095084;28;20615;-79
2023/12/22 11:43:57;;;;;;;16.20;3.20;;;7.70;99.90;;;;;;5094529;28;20270;-79
2023/12/22 11:46:26;;;;;;;18.00;2.93;;;7.70;99.90;;;;;;5093102;28;20335;-79
2023/12/22 11:48:52;;;;;;;22.80;4.20;;;7.70;99.90;;;;;;5095155;28;20285;-79
2023/12/22 11:51:18;;;;;;;20.67;3.93;;;7.70;99.90;;;;;;5094320;28;20321;-79
2023/12/22 11:53:45;;;;;;;24.10;3.93;;;7.80;99.90;;;;;;5094228;28;20318;-79
2023/12/22 11:56:12;;;;;;;21.03;2.87;;;7.70;99.90;;;;;;5076122;28;20305;-79
2023/12/22 11:58:52;;;;;;;18.70;2.93;;;7.70;99.90;;;;;;5093180;28;20377;-79
2023/12/22 12:01:19;;;;;;;19.10;2.90;;;7.70;99.90;;;;;;5093480;28;20297;-79
2023/12/22 12:03:51;;;;;;;16.23;2.90;;;7.70;99.90;;;;;;5092701;28;20293;-79
2023/12/22 12:06:26;;;;;;;18.43;3.00;;;7.70;99.90;;;;;;5094127;28;20274;-78
2023/12/22 12:09:03;;;;;;;18.15;3.10;;;7.70;99.90;;;;;;5093446;28;20330;-79
2023/12/22 12:12:00;;;;;;;16.60;2.83;;;7.80;99.90;;;;;;5094041;28;20040;-79
2023/12/22 12:14:35;;;;;;;20.83;3.07;;;7.80;99.90;;;;;;5093943;28;20347;-79
2023/12/22 12:17:08;;;;;;;17.00;2.63;;;7.70;99.90;;;;;;5093917;28;20278;-79
2023/12/22 12:19:37;;;;;;;19.07;2.83;;;7.80;99.90;;;;;;5092752;28;20700;-79
2023/12/22 12:22:03;;;;;;;15.47;2.87;;;7.80;99.90;;;;;;5076759;28;20281;-79
2023/12/22 12:24:29;;;;;;;16.10;2.97;;;7.80;99.90;;;;;;5094655;28;20282;-79
2023/12/22 12:26:55;;;;;;;19.67;3.10;;;7.80;99.90;;;;;;5093741;28;20758;-79
2023/12/22 12:29:22;;;;;;;19.73;3.70;;;7.70;99.90;;;;;;5092843;28;20048;-78
2023/12/22 12:31:48;;;;;;;20.53;4.00;;;7.80;99.90;;;;;;5093742;28;20050;-78
2023/12/22 12:34:16;;;;;;;18.53;3.77;;;7.70;99.90;;;;;;5092468;28;20353;-76
2023/12/22 12:36:42;;;;;;;17.67;2.57;;;7.70;99.90;;;;;;5092441;28;20083;-77
2023/12/22 12:39:08;;;;;;;18.97;3.30;;;7.70;99.90;;;;;;5093655;28;20317;-76
2023/12/22 12:41:40;;;;;;;19.40;4.07;;;7.70;99.90;;;;;;5094217;28;20395;-77
2023/12/22 12:44:06;;;;;;;19.77;3.57;;;7.70;99.90;;;;;;5092560;28;20321;-77
2023/12/22 12:46:36;;;;;;;21.40;3.67;;;7.70;99.90;;;;;;5092640;28;20286;-77